sensor_id;sensor_type;location;lat;lon;timestamp;P1;durP1;ratioP1;P2;durP2;ratioP2
7939;SDS011;4015;48.888;9.226;2023-10-19T00:00:53;18.57;;;16.67;;
7939;SDS011;4015;48.888;9.226;2023-10-19T00:03:21;19.87;;;16.40;;
7939;SDS011;4015;48.888;9.226;2023-10-19T00:05:48;17.67;;;15.87;;
7939;SDS011;4015;48.888;9.226;2023-10-19T00:08:14;18.77;;;15.53;;
7939;SDS011;4015;48.888;9.226;2023-10-19T00:10:46;18.73;;;15.57;;
7939;SDS011;4015;48.888;9.226;2023-10-19T00:13:15;18.90;;;15.80;;
7939;SDS011;4015;48.888;9.226;2023-10-19T00:15:42;20.13;;;17.10;;
7939;SDS011;4015;48.888;9.226;2023-10-19T00:18:16;18.03;;;15.17;;
7939;SDS011;4015;48.888;9.226;2023-10-19T00:20:42;17.40;;;15.27;;
7939;SDS011;4015;48.888;9.226;2023-10-19T00:23:12;17.60;;;15.70;;
7939;SDS011;4015;48.888;9.226;2023-10-19T00:25:39;17.63;;;15.03;;
7939;SDS011;4015;48.888;9.226;2023-10-19T00:28:09;17.37;;;15.57;;
7939;SDS011;4015;48.888;9.226;2023-10-19T00:30:38;19.60;;;14.80;;
7939;SDS011;4015;48.888;9.226;2023-10-19T00:33:07;16.53;;;14.80;;
7939;SDS011;4015;48.888;9.226;2023-10-19T00:35:41;16.27;;;14.57;;
7939;SDS011;4015;48.888;9.226;2023-10-19T00:38:11;16.13;;;14.47;;
7939;SDS011;4015;48.888;9.226;2023-10-19T00:41:03;17.87;;;15.90;;
7939;SDS011;4015;48.888;9.226;2023-10-19T00:43:40;21.13;;;15.10;;
7939;SDS011;4015;48.888;9.226;2023-10-19T00:46:12;17.07;;;15.27;;
7939;SDS011;4015;48.888;9.226;2023-10-19T00:51:20;21.37;;;15.67;;
7939;SDS011;4015;48.888;9.226;2023-10-19T00:53:55;16.97;;;15.03;;
7939;SDS011;4015;48.888;9.226;2023-10-19T00:56:24;16.00;;;14.40;;
7939;SDS011;4015;48.888;9.226;2023-10-19T00:58:53;21.00;;;16.20;;
7939;SDS011;4015;48.888;9.226;2023-10-19T01:01:26;17.80;;;15.87;;
7939;SDS011;4015;48.888;9.226;2023-10-19T01:03:54;18.13;;;16.07;;
7939;SDS011;4015;48.888;9.226;2023-10-19T01:06:24;22.73;;;16.87;;
7939;SDS011;4015;48.888;9.226;2023-10-19T01:08:50;21.67;;;16.23;;
7939;SDS011;4015;48.888;9.226;2023-10-19T01:11:17;21.50;;;16.97;;
7939;SDS011;4015;48.888;9.226;2023-10-19T01:13:46;20.10;;;15.83;;
7939;SDS011;4015;48.888;9.226;2023-10-19T01:16:15;17.90;;;15.97;;
7939;SDS011;4015;48.888;9.226;2023-10-19T01:18:46;19.07;;;15.10;;
7939;SDS011;4015;48.888;9.226;2023-10-19T01:21:19;20.00;;;16.40;;
7939;SDS011;4015;48.888;9.226;2023-10-19T01:23:46;17.43;;;15.63;;
7939;SDS011;4015;48.888;9.226;2023-10-19T01:26:13;18.80;;;14.23;;
7939;SDS011;4015;48.888;9.226;2023-10-19T01:28:43;16.93;;;15.10;;
7939;SDS011;4015;48.888;9.226;2023-10-19T01:31:13;17.30;;;14.63;;
7939;SDS011;4015;48.888;9.226;2023-10-19T01:33:41;18.87;;;14.37;;
7939;SDS011;4015;48.888;9.226;2023-10-19T01:36:09;16.67;;;13.90;;
7939;SDS011;4015;48.888;9.226;2023-10-19T01:38:47;16.30;;;14.30;;
7939;SDS011;4015;48.888;9.226;2023-10-19T01:41:13;18.00;;;15.70;;
7939;SDS011;4015;48.888;9.226;2023-10-19T01:43:48;18.00;;;14.30;;
7939;SDS011;4015;48.888;9.226;2023-10-19T01:46:17;17.63;;;14.23;;
7939;SDS011;4015;48.888;9.226;2023-10-19T01:48:50;16.13;;;13.40;;
7939;SDS011;4015;48.888;9.226;2023-10-19T01:51:21;15.50;;;13.80;;
7939;SDS011;4015;48.888;9.226;2023-10-19T01:53:54;15.00;;;13.53;;
7939;SDS011;4015;48.888;9.226;2023-10-19T01:56:23;14.20;;;12.70;;
7939;SDS011;4015;48.888;9.226;2023-10-19T01:58:49;15.10;;;13.50;;
7939;SDS011;4015;48.888;9.226;2023-10-19T02:01:17;14.70;;;13.13;;
7939;SDS011;4015;48.888;9.226;2023-10-19T02:03:54;14.20;;;12.77;;
7939;SDS011;4015;48.888;9.226;2023-10-19T02:06:23;17.30;;;13.37;;
7939;SDS011;4015;48.888;9.226;2023-10-19T02:12:21;15.37;;;12.27;;
7939;SDS011;4015;48.888;9.226;2023-10-19T02:14:46;13.53;;;12.13;;
7939;SDS011;4015;48.888;9.226;2023-10-19T02:17:12;15.57;;;12.77;;
7939;SDS011;4015;48.888;9.226;2023-10-19T02:19:40;17.40;;;14.27;;
7939;SDS011;4015;48.888;9.226;2023-10-19T02:22:06;15.37;;;12.53;;
7939;SDS011;4015;48.888;9.226;2023-10-19T02:24:33;14.40;;;12.90;;
7939;SDS011;4015;48.888;9.226;2023-10-19T02:26:58;16.87;;;13.03;;
7939;SDS011;4015;48.888;9.226;2023-10-19T02:29:26;17.00;;;14.67;;
7939;SDS011;4015;48.888;9.226;2023-10-19T02:31:51;19.53;;;15.20;;
7939;SDS011;4015;48.888;9.226;2023-10-19T02:34:18;16.93;;;14.40;;
7939;SDS011;4015;48.888;9.226;2023-10-19T02:36:43;17.10;;;14.83;;
7939;SDS011;4015;48.888;9.226;2023-10-19T02:39:11;18.77;;;15.80;;
7939;SDS011;4015;48.888;9.226;2023-10-19T02:41:45;18.70;;;14.97;;
7939;SDS011;4015;48.888;9.226;2023-10-19T02:44:14;21.00;;;16.20;;
7939;SDS011;4015;48.888;9.226;2023-10-19T02:46:43;23.43;;;17.67;;
7939;SDS011;4015;48.888;9.226;2023-10-19T02:49:14;25.23;;;18.43;;
7939;SDS011;4015;48.888;9.226;2023-10-19T02:51:43;22.90;;;18.70;;
7939;SDS011;4015;48.888;9.226;2023-10-19T02:54:10;20.73;;;17.47;;
7939;SDS011;4015;48.888;9.226;2023-10-19T02:56:43;20.23;;;17.37;;
7939;SDS011;4015;48.888;9.226;2023-10-19T02:59:12;22.17;;;17.93;;
7939;SDS011;4015;48.888;9.226;2023-10-19T03:01:40;20.47;;;15.90;;
7939;SDS011;4015;48.888;9.226;2023-10-19T03:04:09;18.20;;;16.13;;
7939;SDS011;4015;48.888;9.226;2023-10-19T03:06:37;21.07;;;15.73;;
7939;SDS011;4015;48.888;9.226;2023-10-19T03:09:04;17.13;;;15.33;;
7939;SDS011;4015;48.888;9.226;2023-10-19T03:11:39;20.77;;;16.60;;
7939;SDS011;4015;48.888;9.226;2023-10-19T03:14:11;20.67;;;16.23;;
7939;SDS011;4015;48.888;9.226;2023-10-19T03:16:37;21.87;;;16.87;;
7939;SDS011;4015;48.888;9.226;2023-10-19T03:19:06;23.40;;;17.27;;
7939;SDS011;4015;48.888;9.226;2023-10-19T03:21:32;26.00;;;19.13;;
7939;SDS011;4015;48.888;9.226;2023-10-19T03:24:06;26.87;;;20.17;;
7939;SDS011;4015;48.888;9.226;2023-10-19T03:26:36;26.13;;;19.73;;
7939;SDS011;4015;48.888;9.226;2023-10-19T03:29:02;25.60;;;19.33;;
7939;SDS011;4015;48.888;9.226;2023-10-19T03:31:40;32.40;;;21.23;;
7939;SDS011;4015;48.888;9.226;2023-10-19T03:34:13;27.67;;;21.27;;
7939;SDS011;4015;48.888;9.226;2023-10-19T03:36:38;30.33;;;22.33;;
7939;SDS011;4015;48.888;9.226;2023-10-19T03:39:04;30.13;;;23.70;;
7939;SDS011;4015;48.888;9.226;2023-10-19T03:41:43;29.47;;;22.77;;
7939;SDS011;4015;48.888;9.226;2023-10-19T03:44:12;30.83;;;23.03;;
7939;SDS011;4015;48.888;9.226;2023-10-19T03:46:59;31.33;;;22.97;;
7939;SDS011;4015;48.888;9.226;2023-10-19T03:49:27;32.97;;;24.27;;
7939;SDS011;4015;48.888;9.226;2023-10-19T03:51:58;32.63;;;23.97;;
7939;SDS011;4015;48.888;9.226;2023-10-19T03:54:24;28.47;;;22.03;;
7939;SDS011;4015;48.888;9.226;2023-10-19T03:56:50;26.97;;;21.00;;
7939;SDS011;4015;48.888;9.226;2023-10-19T03:59:17;27.33;;;20.80;;
7939;SDS011;4015;48.888;9.226;2023-10-19T04:01:42;27.50;;;18.67;;
7939;SDS011;4015;48.888;9.226;2023-10-19T04:04:09;28.33;;;20.27;;
7939;SDS011;4015;48.888;9.226;2023-10-19T04:06:38;32.10;;;20.27;;
7939;SDS011;4015;48.888;9.226;2023-10-19T04:09:05;26.40;;;17.83;;
7939;SDS011;4015;48.888;9.226;2023-10-19T04:11:31;25.77;;;18.10;;
7939;SDS011;4015;48.888;9.226;2023-10-19T04:13:58;23.43;;;18.23;;
7939;SDS011;4015;48.888;9.226;2023-10-19T04:16:28;22.27;;;17.07;;
7939;SDS011;4015;48.888;9.226;2023-10-19T04:18:54;22.53;;;16.23;;
7939;SDS011;4015;48.888;9.226;2023-10-19T04:21:19;19.80;;;16.20;;
7939;SDS011;4015;48.888;9.226;2023-10-19T04:23:45;21.40;;;15.60;;
7939;SDS011;4015;48.888;9.226;2023-10-19T04:26:11;21.23;;;15.93;;
7939;SDS011;4015;48.888;9.226;2023-10-19T04:28:38;20.80;;;16.77;;
7939;SDS011;4015;48.888;9.226;2023-10-19T04:31:10;20.87;;;17.00;;
7939;SDS011;4015;48.888;9.226;2023-10-19T04:33:39;23.33;;;16.57;;
7939;SDS011;4015;48.888;9.226;2023-10-19T04:36:07;28.20;;;17.70;;
7939;SDS011;4015;48.888;9.226;2023-10-19T04:38:36;22.60;;;17.97;;
7939;SDS011;4015;48.888;9.226;2023-10-19T04:41:08;23.17;;;18.77;;
7939;SDS011;4015;48.888;9.226;2023-10-19T04:43:35;22.00;;;19.40;;
7939;SDS011;4015;48.888;9.226;2023-10-19T04:46:06;26.17;;;19.73;;
7939;SDS011;4015;48.888;9.226;2023-10-19T04:48:33;27.43;;;18.67;;
7939;SDS011;4015;48.888;9.226;2023-10-19T04:51:00;22.00;;;17.90;;
7939;SDS011;4015;48.888;9.226;2023-10-19T04:53:26;25.93;;;17.47;;
7939;SDS011;4015;48.888;9.226;2023-10-19T04:55:51;19.13;;;15.00;;
7939;SDS011;4015;48.888;9.226;2023-10-19T04:58:16;20.63;;;14.40;;
7939;SDS011;4015;48.888;9.226;2023-10-19T05:00:42;19.10;;;14.77;;
7939;SDS011;4015;48.888;9.226;2023-10-19T05:03:08;22.53;;;14.87;;
7939;SDS011;4015;48.888;9.226;2023-10-19T05:05:34;21.20;;;15.30;;
7939;SDS011;4015;48.888;9.226;2023-10-19T05:08:00;30.10;;;26.93;;
7939;SDS011;4015;48.888;9.226;2023-10-19T05:10:26;21.67;;;16.40;;
7939;SDS011;4015;48.888;9.226;2023-10-19T05:12:51;25.00;;;20.37;;
7939;SDS011;4015;48.888;9.226;2023-10-19T05:15:20;16.63;;;13.00;;
7939;SDS011;4015;48.888;9.226;2023-10-19T05:17:45;15.90;;;11.73;;
7939;SDS011;4015;48.888;9.226;2023-10-19T05:20:10;17.10;;;12.47;;
7939;SDS011;4015;48.888;9.226;2023-10-19T05:22:36;16.27;;;11.93;;
7939;SDS011;4015;48.888;9.226;2023-10-19T05:25:02;13.33;;;11.60;;
7939;SDS011;4015;48.888;9.226;2023-10-19T05:27:28;13.27;;;11.53;;
7939;SDS011;4015;48.888;9.226;2023-10-19T05:29:54;14.57;;;11.03;;
7939;SDS011;4015;48.888;9.226;2023-10-19T05:32:20;15.17;;;10.90;;
7939;SDS011;4015;48.888;9.226;2023-10-19T05:34:45;18.40;;;11.27;;
7939;SDS011;4015;48.888;9.226;2023-10-19T05:37:12;17.00;;;10.37;;
7939;SDS011;4015;48.888;9.226;2023-10-19T05:39:37;17.43;;;10.83;;
7939;SDS011;4015;48.888;9.226;2023-10-19T05:42:03;14.87;;;12.50;;
7939;SDS011;4015;48.888;9.226;2023-10-19T05:44:29;17.40;;;13.97;;
7939;SDS011;4015;48.888;9.226;2023-10-19T05:46:55;20.50;;;15.57;;
7939;SDS011;4015;48.888;9.226;2023-10-19T05:49:21;25.20;;;17.83;;
7939;SDS011;4015;48.888;9.226;2023-10-19T05:51:47;26.27;;;19.17;;
7939;SDS011;4015;48.888;9.226;2023-10-19T05:54:12;33.07;;;25.13;;
7939;SDS011;4015;48.888;9.226;2023-10-19T05:56:37;23.07;;;15.03;;
7939;SDS011;4015;48.888;9.226;2023-10-19T05:59:03;27.33;;;16.33;;
7939;SDS011;4015;48.888;9.226;2023-10-19T06:01:29;20.63;;;16.13;;
7939;SDS011;4015;48.888;9.226;2023-10-19T06:03:55;22.40;;;15.17;;
7939;SDS011;4015;48.888;9.226;2023-10-19T06:06:21;20.27;;;14.63;;
7939;SDS011;4015;48.888;9.226;2023-10-19T06:08:46;21.93;;;15.03;;
7939;SDS011;4015;48.888;9.226;2023-10-19T06:11:12;23.23;;;14.70;;
7939;SDS011;4015;48.888;9.226;2023-10-19T06:13:38;19.23;;;14.20;;
7939;SDS011;4015;48.888;9.226;2023-10-19T06:16:03;18.87;;;14.17;;
7939;SDS011;4015;48.888;9.226;2023-10-19T06:18:29;18.97;;;14.70;;
7939;SDS011;4015;48.888;9.226;2023-10-19T06:20:55;18.60;;;15.17;;
7939;SDS011;4015;48.888;9.226;2023-10-19T06:23:20;27.53;;;21.07;;
7939;SDS011;4015;48.888;9.226;2023-10-19T06:25:46;22.83;;;15.87;;
7939;SDS011;4015;48.888;9.226;2023-10-19T06:28:12;19.00;;;13.73;;
7939;SDS011;4015;48.888;9.226;2023-10-19T06:30:37;22.73;;;16.97;;
7939;SDS011;4015;48.888;9.226;2023-10-19T06:33:03;19.70;;;13.57;;
7939;SDS011;4015;48.888;9.226;2023-10-19T06:35:29;16.83;;;12.43;;
7939;SDS011;4015;48.888;9.226;2023-10-19T06:38:01;15.40;;;12.00;;
7939;SDS011;4015;48.888;9.226;2023-10-19T06:40:28;15.20;;;12.43;;
7939;SDS011;4015;48.888;9.226;2023-10-19T06:42:56;17.20;;;11.43;;
7939;SDS011;4015;48.888;9.226;2023-10-19T06:45:23;21.10;;;14.47;;
7939;SDS011;4015;48.888;9.226;2023-10-19T06:47:50;16.30;;;13.70;;
7939;SDS011;4015;48.888;9.226;2023-10-19T06:50:17;15.83;;;12.80;;
7939;SDS011;4015;48.888;9.226;2023-10-19T06:52:45;16.23;;;13.53;;
7939;SDS011;4015;48.888;9.226;2023-10-19T06:55:14;15.40;;;12.90;;
7939;SDS011;4015;48.888;9.226;2023-10-19T06:57:42;14.70;;;13.03;;
7939;SDS011;4015;48.888;9.226;2023-10-19T07:00:12;18.90;;;13.67;;
7939;SDS011;4015;48.888;9.226;2023-10-19T07:02:43;15.50;;;12.30;;
7939;SDS011;4015;48.888;9.226;2023-10-19T07:05:12;15.93;;;13.53;;
7939;SDS011;4015;48.888;9.226;2023-10-19T07:07:41;21.33;;;14.40;;
7939;SDS011;4015;48.888;9.226;2023-10-19T07:10:08;17.90;;;13.47;;
7939;SDS011;4015;48.888;9.226;2023-10-19T07:12:35;13.00;;;11.47;;
7939;SDS011;4015;48.888;9.226;2023-10-19T07:15:01;18.37;;;12.13;;
7939;SDS011;4015;48.888;9.226;2023-10-19T07:17:28;13.13;;;11.73;;
7939;SDS011;4015;48.888;9.226;2023-10-19T07:19:53;14.97;;;10.90;;
7939;SDS011;4015;48.888;9.226;2023-10-19T07:22:19;12.77;;;10.57;;
7939;SDS011;4015;48.888;9.226;2023-10-19T07:24:47;13.03;;;11.00;;
7939;SDS011;4015;48.888;9.226;2023-10-19T07:27:13;15.70;;;10.97;;
7939;SDS011;4015;48.888;9.226;2023-10-19T07:29:43;12.03;;;10.53;;
7939;SDS011;4015;48.888;9.226;2023-10-19T07:32:09;14.27;;;11.00;;
7939;SDS011;4015;48.888;9.226;2023-10-19T07:34:38;11.57;;;9.43;;
7939;SDS011;4015;48.888;9.226;2023-10-19T07:37:04;12.77;;;9.67;;
7939;SDS011;4015;48.888;9.226;2023-10-19T07:39:32;10.40;;;9.40;;
7939;SDS011;4015;48.888;9.226;2023-10-19T07:41:58;11.17;;;10.07;;
7939;SDS011;4015;48.888;9.226;2023-10-19T07:44:24;10.20;;;8.40;;
7939;SDS011;4015;48.888;9.226;2023-10-19T07:46:49;10.47;;;8.70;;
7939;SDS011;4015;48.888;9.226;2023-10-19T07:49:15;10.27;;;8.40;;
7939;SDS011;4015;48.888;9.226;2023-10-19T07:51:44;11.70;;;8.77;;
7939;SDS011;4015;48.888;9.226;2023-10-19T07:54:11;10.03;;;8.03;;
7939;SDS011;4015;48.888;9.226;2023-10-19T07:56:37;10.27;;;8.00;;
7939;SDS011;4015;48.888;9.226;2023-10-19T07:59:02;9.30;;;7.67;;
7939;SDS011;4015;48.888;9.226;2023-10-19T08:01:28;8.47;;;7.60;;
7939;SDS011;4015;48.888;9.226;2023-10-19T08:03:54;7.68;;;6.38;;
7939;SDS011;4015;48.888;9.226;2023-10-19T08:06:19;7.35;;;6.55;;
7939;SDS011;4015;48.888;9.226;2023-10-19T08:08:45;7.82;;;6.70;;
7939;SDS011;4015;48.888;9.226;2023-10-19T08:11:11;6.75;;;6.10;;
7939;SDS011;4015;48.888;9.226;2023-10-19T08:13:37;6.43;;;5.70;;
7939;SDS011;4015;48.888;9.226;2023-10-19T08:16:04;7.57;;;5.95;;
7939;SDS011;4015;48.888;9.226;2023-10-19T08:18:32;6.32;;;5.72;;
7939;SDS011;4015;48.888;9.226;2023-10-19T08:21:00;7.72;;;5.28;;
7939;SDS011;4015;48.888;9.226;2023-10-19T08:23:26;7.25;;;5.47;;
7939;SDS011;4015;48.888;9.226;2023-10-19T08:25:52;6.15;;;5.22;;
7939;SDS011;4015;48.888;9.226;2023-10-19T08:28:18;8.88;;;5.03;;
7939;SDS011;4015;48.888;9.226;2023-10-19T08:30:44;7.22;;;4.68;;
7939;SDS011;4015;48.888;9.226;2023-10-19T08:33:21;6.03;;;4.93;;
7939;SDS011;4015;48.888;9.226;2023-10-19T08:35:55;5.20;;;4.38;;
7939;SDS011;4015;48.888;9.226;2023-10-19T08:38:21;7.82;;;4.85;;
7939;SDS011;4015;48.888;9.226;2023-10-19T08:40:48;6.95;;;5.10;;
7939;SDS011;4015;48.888;9.226;2023-10-19T08:43:15;5.85;;;4.88;;
7939;SDS011;4015;48.888;9.226;2023-10-19T08:45:43;5.22;;;4.10;;
7939;SDS011;4015;48.888;9.226;2023-10-19T08:48:09;7.90;;;4.55;;
7939;SDS011;4015;48.888;9.226;2023-10-19T08:50:36;6.88;;;3.70;;
7939;SDS011;4015;48.888;9.226;2023-10-19T08:53:03;4.97;;;3.15;;
7939;SDS011;4015;48.888;9.226;2023-10-19T08:55:33;4.35;;;3.70;;
7939;SDS011;4015;48.888;9.226;2023-10-19T08:57:59;5.55;;;4.05;;
7939;SDS011;4015;48.888;9.226;2023-10-19T09:00:25;5.18;;;3.63;;
7939;SDS011;4015;48.888;9.226;2023-10-19T09:02:52;3.67;;;3.35;;
7939;SDS011;4015;48.888;9.226;2023-10-19T09:05:18;3.53;;;2.90;;
7939;SDS011;4015;48.888;9.226;2023-10-19T09:07:55;3.42;;;2.78;;
7939;SDS011;4015;48.888;9.226;2023-10-19T09:12:57;3.97;;;2.92;;
7939;SDS011;4015;48.888;9.226;2023-10-19T09:15:24;3.65;;;2.70;;
7939;SDS011;4015;48.888;9.226;2023-10-19T09:17:51;4.30;;;3.13;;
7939;SDS011;4015;48.888;9.226;2023-10-19T09:20:19;3.72;;;2.88;;
7939;SDS011;4015;48.888;9.226;2023-10-19T09:22:52;4.22;;;3.38;;
7939;SDS011;4015;48.888;9.226;2023-10-19T09:25:21;3.75;;;2.80;;
7939;SDS011;4015;48.888;9.226;2023-10-19T09:27:48;3.15;;;2.20;;
7939;SDS011;4015;48.888;9.226;2023-10-19T09:30:14;3.10;;;2.53;;
7939;SDS011;4015;48.888;9.226;2023-10-19T09:32:43;5.43;;;2.88;;
7939;SDS011;4015;48.888;9.226;2023-10-19T09:35:12;4.63;;;2.97;;
7939;SDS011;4015;48.888;9.226;2023-10-19T09:37:41;4.43;;;2.83;;
7939;SDS011;4015;48.888;9.226;2023-10-19T09:40:08;3.67;;;2.90;;
7939;SDS011;4015;48.888;9.226;2023-10-19T09:42:38;4.40;;;2.10;;
7939;SDS011;4015;48.888;9.226;2023-10-19T09:45:11;4.03;;;2.33;;
7939;SDS011;4015;48.888;9.226;2023-10-19T09:47:41;2.80;;;2.50;;
7939;SDS011;4015;48.888;9.226;2023-10-19T09:50:13;2.70;;;2.35;;
7939;SDS011;4015;48.888;9.226;2023-10-19T09:52:39;8.23;;;3.00;;
7939;SDS011;4015;48.888;9.226;2023-10-19T09:55:09;6.03;;;2.42;;
7939;SDS011;4015;48.888;9.226;2023-10-19T09:57:42;3.65;;;2.72;;
7939;SDS011;4015;48.888;9.226;2023-10-19T10:00:10;4.38;;;2.85;;
7939;SDS011;4015;48.888;9.226;2023-10-19T10:02:40;4.63;;;2.88;;
7939;SDS011;4015;48.888;9.226;2023-10-19T10:10:45;8.30;;;5.82;;
7939;SDS011;4015;48.888;9.226;2023-10-19T10:15:49;2.80;;;2.42;;
7939;SDS011;4015;48.888;9.226;2023-10-19T10:18:18;3.83;;;2.88;;
7939;SDS011;4015;48.888;9.226;2023-10-19T10:20:43;4.05;;;3.00;;
7939;SDS011;4015;48.888;9.226;2023-10-19T10:23:18;5.80;;;2.40;;
7939;SDS011;4015;48.888;9.226;2023-10-19T10:25:49;6.28;;;3.00;;
7939;SDS011;4015;48.888;9.226;2023-10-19T10:28:18;3.70;;;2.42;;
7939;SDS011;4015;48.888;9.226;2023-10-19T10:33:39;3.88;;;2.88;;
7939;SDS011;4015;48.888;9.226;2023-10-19T10:36:06;4.13;;;2.72;;
7939;SDS011;4015;48.888;9.226;2023-10-19T10:38:33;4.25;;;2.60;;
7939;SDS011;4015;48.888;9.226;2023-10-19T10:41:00;5.03;;;2.50;;
7939;SDS011;4015;48.888;9.226;2023-10-19T10:43:26;4.07;;;2.35;;
7939;SDS011;4015;48.888;9.226;2023-10-19T10:45:52;5.22;;;2.63;;
7939;SDS011;4015;48.888;9.226;2023-10-19T10:48:27;2.65;;;2.25;;
7939;SDS011;4015;48.888;9.226;2023-10-19T10:50:53;3.75;;;2.47;;
7939;SDS011;4015;48.888;9.226;2023-10-19T10:53:19;3.25;;;2.60;;
7939;SDS011;4015;48.888;9.226;2023-10-19T10:55:44;3.05;;;2.53;;
7939;SDS011;4015;48.888;9.226;2023-10-19T10:58:14;2.67;;;2.40;;
7939;SDS011;4015;48.888;9.226;2023-10-19T11:00:43;5.93;;;2.58;;
7939;SDS011;4015;48.888;9.226;2023-10-19T11:03:10;2.60;;;2.10;;
7939;SDS011;4015;48.888;9.226;2023-10-19T11:05:36;4.05;;;2.83;;
7939;SDS011;4015;48.888;9.226;2023-10-19T11:10:30;3.33;;;2.35;;
7939;SDS011;4015;48.888;9.226;2023-10-19T11:13:14;3.17;;;2.88;;
7939;SDS011;4015;48.888;9.226;2023-10-19T11:15:47;4.28;;;2.47;;
7939;SDS011;4015;48.888;9.226;2023-10-19T11:21:08;7.63;;;6.07;;
7939;SDS011;4015;48.888;9.226;2023-10-19T11:23:44;10.90;;;6.38;;
7939;SDS011;4015;48.888;9.226;2023-10-19T11:26:11;6.85;;;2.63;;
7939;SDS011;4015;48.888;9.226;2023-10-19T11:28:39;5.72;;;2.63;;
7939;SDS011;4015;48.888;9.226;2023-10-19T11:33:43;5.10;;;3.13;;
7939;SDS011;4015;48.888;9.226;2023-10-19T11:36:10;3.30;;;3.00;;
7939;SDS011;4015;48.888;9.226;2023-10-19T11:38:38;5.57;;;4.18;;
7939;SDS011;4015;48.888;9.226;2023-10-19T11:41:04;4.30;;;2.97;;
7939;SDS011;4015;48.888;9.226;2023-10-19T11:43:29;5.57;;;3.55;;
7939;SDS011;4015;48.888;9.226;2023-10-19T11:45:55;4.85;;;3.50;;
7939;SDS011;4015;48.888;9.226;2023-10-19T11:48:20;9.25;;;4.07;;
7939;SDS011;4015;48.888;9.226;2023-10-19T11:50:45;7.55;;;4.45;;
7939;SDS011;4015;48.888;9.226;2023-10-19T11:53:11;9.77;;;4.25;;
7939;SDS011;4015;48.888;9.226;2023-10-19T11:55:36;14.20;;;4.82;;
7939;SDS011;4015;48.888;9.226;2023-10-19T11:58:01;9.38;;;5.32;;
7939;SDS011;4015;48.888;9.226;2023-10-19T12:00:26;12.35;;;5.85;;
7939;SDS011;4015;48.888;9.226;2023-10-19T12:02:59;10.10;;;5.18;;
7939;SDS011;4015;48.888;9.226;2023-10-19T12:05:24;8.55;;;5.53;;
7939;SDS011;4015;48.888;9.226;2023-10-19T12:07:50;8.07;;;5.32;;
7939;SDS011;4015;48.888;9.226;2023-10-19T12:10:17;7.63;;;5.70;;
7939;SDS011;4015;48.888;9.226;2023-10-19T12:12:45;9.43;;;5.60;;
7939;SDS011;4015;48.888;9.226;2023-10-19T12:15:11;7.55;;;4.78;;
7939;SDS011;4015;48.888;9.226;2023-10-19T12:17:37;5.82;;;4.78;;
7939;SDS011;4015;48.888;9.226;2023-10-19T12:20:03;6.07;;;4.88;;
7939;SDS011;4015;48.888;9.226;2023-10-19T12:22:31;8.65;;;5.65;;
7939;SDS011;4015;48.888;9.226;2023-10-19T12:25:01;6.10;;;5.28;;
7939;SDS011;4015;48.888;9.226;2023-10-19T12:27:27;8.27;;;5.78;;
7939;SDS011;4015;48.888;9.226;2023-10-19T12:29:53;6.75;;;4.78;;
7939;SDS011;4015;48.888;9.226;2023-10-19T12:32:19;6.95;;;4.82;;
7939;SDS011;4015;48.888;9.226;2023-10-19T12:34:44;6.10;;;4.80;;
7939;SDS011;4015;48.888;9.226;2023-10-19T12:37:10;7.03;;;4.95;;
7939;SDS011;4015;48.888;9.226;2023-10-19T12:39:37;7.18;;;5.13;;
7939;SDS011;4015;48.888;9.226;2023-10-19T12:42:14;7.38;;;4.65;;
7939;SDS011;4015;48.888;9.226;2023-10-19T12:44:39;8.00;;;4.38;;
7939;SDS011;4015;48.888;9.226;2023-10-19T12:47:06;5.00;;;4.40;;
7939;SDS011;4015;48.888;9.226;2023-10-19T12:49:35;5.85;;;4.63;;
7939;SDS011;4015;48.888;9.226;2023-10-19T12:52:01;4.82;;;4.18;;
7939;SDS011;4015;48.888;9.226;2023-10-19T12:54:28;4.90;;;4.03;;
7939;SDS011;4015;48.888;9.226;2023-10-19T12:56:54;4.63;;;4.07;;
7939;SDS011;4015;48.888;9.226;2023-10-19T12:59:19;5.03;;;3.90;;
7939;SDS011;4015;48.888;9.226;2023-10-19T13:01:45;6.38;;;4.75;;
7939;SDS011;4015;48.888;9.226;2023-10-19T13:04:14;7.88;;;4.07;;
7939;SDS011;4015;48.888;9.226;2023-10-19T13:06:43;4.80;;;3.90;;
7939;SDS011;4015;48.888;9.226;2023-10-19T13:09:09;3.53;;;3.15;;
7939;SDS011;4015;48.888;9.226;2023-10-19T13:11:34;5.82;;;3.72;;
7939;SDS011;4015;48.888;9.226;2023-10-19T13:14:00;8.68;;;4.68;;
7939;SDS011;4015;48.888;9.226;2023-10-19T13:16:25;5.90;;;3.55;;
7939;SDS011;4015;48.888;9.226;2023-10-19T13:18:52;6.93;;;4.00;;
7939;SDS011;4015;48.888;9.226;2023-10-19T13:21:18;6.78;;;4.07;;
7939;SDS011;4015;48.888;9.226;2023-10-19T13:23:47;5.55;;;3.75;;
7939;SDS011;4015;48.888;9.226;2023-10-19T13:26:13;4.25;;;3.00;;
7939;SDS011;4015;48.888;9.226;2023-10-19T13:28:45;7.88;;;3.17;;
7939;SDS011;4015;48.888;9.226;2023-10-19T13:31:10;3.85;;;3.08;;
7939;SDS011;4015;48.888;9.226;2023-10-19T13:33:36;4.38;;;2.90;;
7939;SDS011;4015;48.888;9.226;2023-10-19T13:36:01;4.70;;;3.47;;
7939;SDS011;4015;48.888;9.226;2023-10-19T13:38:27;7.15;;;3.85;;
7939;SDS011;4015;48.888;9.226;2023-10-19T13:40:53;7.90;;;3.47;;
7939;SDS011;4015;48.888;9.226;2023-10-19T13:43:19;5.03;;;3.05;;
7939;SDS011;4015;48.888;9.226;2023-10-19T13:45:45;9.93;;;7.13;;
7939;SDS011;4015;48.888;9.226;2023-10-19T13:48:12;7.65;;;4.05;;
7939;SDS011;4015;48.888;9.226;2023-10-19T13:50:48;10.00;;;5.78;;
7939;SDS011;4015;48.888;9.226;2023-10-19T13:53:16;4.90;;;3.58;;
7939;SDS011;4015;48.888;9.226;2023-10-19T13:55:42;8.40;;;3.83;;
7939;SDS011;4015;48.888;9.226;2023-10-19T13:58:09;6.18;;;3.58;;
7939;SDS011;4015;48.888;9.226;2023-10-19T14:00:34;5.78;;;3.72;;
7939;SDS011;4015;48.888;9.226;2023-10-19T14:03:00;5.60;;;3.90;;
7939;SDS011;4015;48.888;9.226;2023-10-19T14:05:30;7.28;;;4.60;;
7939;SDS011;4015;48.888;9.226;2023-10-19T14:08:02;11.38;;;5.00;;
7939;SDS011;4015;48.888;9.226;2023-10-19T14:10:31;5.65;;;4.95;;
7939;SDS011;4015;48.888;9.226;2023-10-19T14:12:56;10.35;;;5.72;;
7939;SDS011;4015;48.888;9.226;2023-10-19T14:15:22;6.07;;;4.32;;
7939;SDS011;4015;48.888;9.226;2023-10-19T14:17:48;8.38;;;4.82;;
7939;SDS011;4015;48.888;9.226;2023-10-19T14:20:14;7.40;;;4.90;;
7939;SDS011;4015;48.888;9.226;2023-10-19T14:22:45;5.50;;;4.40;;
7939;SDS011;4015;48.888;9.226;2023-10-19T14:25:12;7.30;;;4.65;;
7939;SDS011;4015;48.888;9.226;2023-10-19T14:27:45;5.75;;;5.05;;
7939;SDS011;4015;48.888;9.226;2023-10-19T14:30:13;7.47;;;5.80;;
7939;SDS011;4015;48.888;9.226;2023-10-19T14:32:40;35.30;;;31.70;;
7939;SDS011;4015;48.888;9.226;2023-10-19T14:35:07;47.22;;;39.78;;
7939;SDS011;4015;48.888;9.226;2023-10-19T14:37:36;18.80;;;16.80;;
7939;SDS011;4015;48.888;9.226;2023-10-19T14:40:04;7.60;;;5.60;;
7939;SDS011;4015;48.888;9.226;2023-10-19T14:42:34;6.50;;;5.28;;
7939;SDS011;4015;48.888;9.226;2023-10-19T14:45:00;7.25;;;5.25;;
7939;SDS011;4015;48.888;9.226;2023-10-19T14:47:25;7.38;;;5.10;;
7939;SDS011;4015;48.888;9.226;2023-10-19T14:49:51;10.85;;;5.60;;
7939;SDS011;4015;48.888;9.226;2023-10-19T14:52:17;6.35;;;5.18;;
7939;SDS011;4015;48.888;9.226;2023-10-19T14:54:42;6.10;;;5.07;;
7939;SDS011;4015;48.888;9.226;2023-10-19T14:57:08;6.88;;;4.78;;
7939;SDS011;4015;48.888;9.226;2023-10-19T14:59:33;6.47;;;5.60;;
7939;SDS011;4015;48.888;9.226;2023-10-19T15:02:00;8.60;;;5.20;;
7939;SDS011;4015;48.888;9.226;2023-10-19T15:04:26;9.00;;;5.20;;
7939;SDS011;4015;48.888;9.226;2023-10-19T15:06:52;10.02;;;6.18;;
7939;SDS011;4015;48.888;9.226;2023-10-19T15:09:17;6.25;;;5.18;;
7939;SDS011;4015;48.888;9.226;2023-10-19T15:11:45;8.23;;;4.97;;
7939;SDS011;4015;48.888;9.226;2023-10-19T15:14:11;7.68;;;5.90;;
7939;SDS011;4015;48.888;9.226;2023-10-19T15:16:36;5.90;;;5.30;;
7939;SDS011;4015;48.888;9.226;2023-10-19T15:19:02;5.88;;;5.13;;
7939;SDS011;4015;48.888;9.226;2023-10-19T15:21:28;7.32;;;5.47;;
7939;SDS011;4015;48.888;9.226;2023-10-19T15:23:54;6.22;;;5.65;;
7939;SDS011;4015;48.888;9.226;2023-10-19T15:26:20;7.05;;;5.55;;
7939;SDS011;4015;48.888;9.226;2023-10-19T15:28:45;11.88;;;6.30;;
7939;SDS011;4015;48.888;9.226;2023-10-19T15:31:10;6.50;;;5.47;;